createdAt,value
2019-05-06T00:01:41.136Z,6.29
2019-05-06T00:06:46.931Z,6.53
2019-05-06T00:11:54.377Z,6.60
2019-05-06T00:17:00.489Z,6.58
2019-05-06T00:22:06.383Z,6.50
2019-05-06T00:27:34.111Z,6.42
2019-05-06T00:32:39.300Z,6.37
2019-05-06T00:37:45.078Z,6.26
2019-05-06T00:42:54.185Z,6.23
2019-05-06T00:48:00.100Z,6.23
2019-05-06T00:53:07.499Z,6.29
2019-05-06T00:58:14.215Z,6.26
2019-05-06T01:03:20.161Z,6.12
2019-05-06T01:08:26.028Z,6.17
2019-05-06T01:13:36.423Z,6.16
2019-05-06T01:18:43.535Z,6.19
2019-05-06T01:23:50.210Z,6.08
2019-05-06T01:28:55.972Z,6.08
2019-05-06T01:34:01.757Z,5.99
2019-05-06T01:39:10.216Z,6.02
2019-05-06T01:44:15.954Z,5.86
2019-05-06T01:49:21.706Z,5.83
2019-05-06T01:54:27.476Z,5.81
2019-05-06T01:59:34.083Z,5.79
2019-05-06T02:04:41.068Z,5.83
2019-05-06T02:09:46.763Z,5.87
2019-05-06T02:14:54.295Z,5.79
2019-05-06T02:19:59.902Z,5.77
2019-05-06T02:25:08.737Z,5.72
2019-05-06T02:30:28.538Z,5.74
2019-05-06T02:35:35.862Z,5.53
2019-05-06T02:40:42.755Z,5.38
2019-05-06T02:45:48.575Z,5.36
2019-05-06T02:50:56.128Z,5.29
2019-05-06T02:56:04.093Z,5.17
2019-05-06T03:01:09.270Z,5.05
2019-05-06T03:06:15.072Z,5.01
2019-05-06T03:11:23.749Z,5.00
2019-05-06T03:16:28.763Z,4.91
2019-05-06T03:21:44.810Z,4.87
2019-05-06T03:26:53.410Z,4.83
2019-05-06T03:31:58.762Z,4.91
2019-05-06T03:37:07.530Z,4.86
2019-05-06T03:42:15.924Z,4.90
2019-05-06T03:47:23.463Z,4.86
2019-05-06T03:52:30.382Z,4.84
2019-05-06T03:57:37.748Z,4.72
2019-05-06T04:02:44.535Z,4.82
2019-05-06T04:07:53.034Z,4.92
2019-05-06T04:13:03.924Z,4.97
2019-05-06T04:18:12.395Z,5.08
2019-05-06T04:23:29.217Z,5.14
2019-05-06T04:28:36.827Z,5.38
2019-05-06T04:33:55.437Z,5.52
2019-05-06T04:38:50.112Z,5.69
2019-05-06T04:43:56.903Z,5.57
2019-05-06T04:49:04.040Z,5.43
2019-05-06T04:54:13.040Z,5.69
2019-05-06T04:59:17.387Z,5.78
2019-05-06T05:04:31.677Z,5.99
2019-05-06T05:09:32.604Z,5.92
2019-05-06T05:14:56.791Z,6.00
2019-05-06T05:20:02.886Z,6.11
2019-05-06T05:25:08.860Z,6.19
2019-05-06T05:30:14.835Z,6.46
2019-05-06T05:35:22.604Z,6.49
2019-05-06T05:40:28.170Z,6.60
2019-05-06T05:45:34.089Z,6.66
2019-05-06T05:50:42.051Z,7.19
2019-05-06T05:55:47.851Z,7.04
2019-05-06T06:00:53.646Z,7.22
2019-05-06T06:05:59.817Z,7.26
2019-05-06T06:11:07.545Z,7.27
2019-05-06T06:16:32.854Z,7.45
2019-05-06T06:21:43.350Z,7.55
2019-05-06T06:26:49.223Z,7.74
2019-05-06T06:32:05.738Z,7.73
2019-05-06T06:37:33.033Z,8.23
2019-05-06T06:42:39.289Z,8.38
2019-05-06T06:47:45.233Z,8.53
2019-05-06T06:52:52.479Z,8.32
2019-05-06T06:58:02.544Z,8.86
2019-05-06T07:03:12.427Z,9.00
2019-05-06T07:08:32.142Z,8.62
2019-05-06T07:13:25.816Z,8.90
2019-05-06T07:18:33.189Z,8.93
2019-05-06T07:23:39.448Z,8.90
2019-05-06T07:28:45.235Z,9.31
2019-05-06T07:33:52.213Z,8.93
2019-05-06T07:38:58.112Z,9.46
2019-05-06T07:44:08.187Z,9.60
2019-05-06T07:49:13.819Z,9.70
2019-05-06T07:54:21.880Z,9.72
2019-05-06T07:59:27.360Z,9.33
2019-05-06T08:04:33.224Z,10.17
2019-05-06T08:09:42.161Z,9.90
2019-05-06T08:14:47.720Z,9.85
2019-05-06T08:19:53.600Z,10.37
2019-05-06T08:24:59.650Z,10.03
2019-05-06T08:30:08.411Z,10.38
2019-05-06T08:35:16.591Z,10.17
2019-05-06T08:40:26.281Z,10.32
2019-05-06T08:45:32.488Z,10.63
2019-05-06T08:50:55.332Z,10.47
2019-05-06T08:56:02.732Z,10.55
2019-05-06T09:01:12.412Z,10.77
2019-05-06T09:06:29.749Z,10.68
2019-05-06T09:11:25.893Z,11.16
2019-05-06T09:16:33.081Z,10.72
2019-05-06T09:21:42.467Z,10.65
2019-05-06T09:26:52.258Z,10.80
2019-05-06T09:32:02.512Z,11.26
2019-05-06T09:37:16.506Z,11.64
2019-05-06T09:42:23.469Z,11.23
2019-05-06T09:47:42.220Z,11.32
2019-05-06T09:52:47.485Z,11.39
2019-05-06T09:58:03.163Z,11.33
2019-05-06T10:03:08.617Z,11.50
2019-05-06T10:08:14.417Z,11.82
2019-05-06T10:13:21.691Z,11.60
2019-05-06T10:18:27.893Z,11.33
2019-05-06T10:23:33.766Z,11.11
2019-05-06T10:28:44.326Z,11.49
2019-05-06T10:34:08.318Z,11.99
2019-05-06T10:39:16.974Z,12.42
2019-05-06T10:44:34.485Z,12.21
2019-05-06T10:49:42.043Z,12.21
2019-05-06T10:54:47.739Z,12.15
2019-05-06T10:59:53.655Z,12.08
2019-05-06T11:04:59.571Z,11.80
2019-05-06T11:10:06.820Z,11.53
2019-05-06T11:15:12.904Z,12.26
2019-05-06T11:20:20.531Z,12.52
2019-05-06T11:25:26.341Z,12.80
2019-05-06T11:30:42.373Z,12.98
2019-05-06T11:35:52.818Z,12.90
2019-05-06T11:40:58.884Z,12.54
2019-05-06T11:46:04.825Z,12.76
2019-05-06T11:51:12.862Z,12.78
2019-05-06T11:56:19.881Z,12.74
2019-05-06T12:01:32.630Z,13.38
2019-05-06T12:06:37.937Z,13.52
2019-05-06T12:11:43.811Z,13.25
2019-05-06T12:16:49.688Z,13.53
2019-05-06T12:21:55.550Z,12.44
2019-05-06T12:27:03.240Z,12.67
2019-05-06T12:32:16.293Z,12.44
2019-05-06T12:37:23.657Z,12.67
2019-05-06T12:42:33.178Z,12.88
2019-05-06T12:47:42.537Z,12.85
2019-05-06T12:52:47.664Z,12.96
2019-05-06T12:57:53.756Z,13.38
2019-05-06T13:02:59.552Z,13.90
2019-05-06T13:08:06.544Z,14.12
2019-05-06T13:13:12.892Z,14.87
2019-05-06T13:18:18.718Z,14.31
2019-05-06T13:23:28.920Z,13.74
2019-05-06T13:28:36.344Z,13.08
2019-05-06T13:33:46.911Z,12.50
2019-05-06T13:39:09.521Z,12.70
2019-05-06T13:44:03.693Z,12.74
2019-05-06T13:49:13.340Z,12.90
2019-05-06T13:54:18.778Z,13.61
2019-05-06T13:59:24.590Z,13.25
2019-05-06T14:04:32.662Z,13.06
2019-05-06T14:09:40.203Z,12.96
2019-05-06T14:14:45.575Z,13.21
2019-05-06T14:19:53.352Z,13.11
2019-05-06T14:25:00.494Z,12.90
2019-05-06T14:30:26.428Z,12.70
2019-05-06T14:35:32.585Z,12.44
2019-05-06T14:40:56.770Z,12.46
2019-05-06T14:46:02.893Z,12.19
2019-05-06T14:51:08.761Z,12.31
2019-05-06T14:56:25.394Z,12.41
2019-05-06T15:01:33.471Z,12.16
2019-05-06T15:06:39.473Z,12.22
2019-05-06T15:11:45.255Z,11.83
2019-05-06T15:16:52.773Z,11.69
2019-05-06T15:22:02.197Z,11.54
2019-05-06T15:27:07.717Z,11.51
2019-05-06T15:32:19.181Z,11.48
2019-05-06T15:37:43.105Z,11.37
2019-05-06T15:42:48.855Z,12.02
2019-05-06T15:47:56.248Z,12.77
2019-05-06T15:53:02.235Z,12.69
2019-05-06T15:58:08.096Z,12.36
2019-05-06T16:03:14.079Z,13.58
2019-05-06T16:08:19.870Z,16.52
2019-05-06T16:13:25.545Z,17.65
2019-05-06T16:18:32.744Z,15.83
2019-05-06T16:23:44.051Z,16.71
2019-05-06T16:28:49.981Z,17.50
2019-05-06T16:33:55.654Z,17.22
2019-05-06T16:39:03.583Z,16.14
2019-05-06T16:44:09.840Z,16.37
2019-05-06T16:49:15.609Z,16.24
2019-05-06T16:54:21.487Z,16.38
2019-05-06T16:59:27.363Z,16.91
2019-05-06T17:04:34.767Z,16.48
2019-05-06T17:09:40.536Z,13.76
2019-05-06T17:14:46.175Z,12.68
2019-05-06T17:19:52.904Z,12.20
2019-05-06T17:25:02.425Z,11.72
2019-05-06T17:30:12.732Z,11.60
2019-05-06T17:35:18.947Z,11.36
2019-05-06T17:40:24.768Z,11.03
2019-05-06T17:45:43.104Z,10.93
2019-05-06T17:51:06.517Z,10.89
2019-05-06T17:56:13.007Z,10.66
2019-05-06T18:01:23.263Z,10.54
2019-05-06T18:06:28.980Z,10.44
2019-05-06T18:11:34.753Z,10.35
2019-05-06T18:16:42.741Z,10.20
2019-05-06T18:21:48.709Z,10.10
2019-05-06T18:26:54.613Z,10.19
2019-05-06T18:32:00.558Z,10.02
2019-05-06T18:37:06.558Z,9.82
2019-05-06T18:42:19.580Z,9.77
2019-05-06T18:47:20.141Z,9.78
2019-05-06T18:52:26.083Z,9.66
2019-05-06T18:57:32.785Z,9.62
2019-05-06T19:02:39.101Z,9.61
2019-05-06T19:07:46.783Z,9.37
2019-05-06T19:12:52.908Z,9.20
2019-05-06T19:17:58.540Z,9.12
2019-05-06T19:23:04.293Z,8.93
2019-05-06T19:28:12.085Z,8.96
2019-05-06T19:33:17.679Z,8.94
2019-05-06T19:38:24.473Z,8.84
2019-05-06T19:43:32.838Z,8.78
2019-05-06T19:48:39.100Z,8.75
2019-05-06T19:53:44.935Z,9.62
2019-05-06T19:58:52.570Z,9.01
2019-05-06T20:03:58.118Z,8.74
2019-05-06T20:09:18.971Z,8.63
2019-05-06T20:14:24.666Z,8.57
2019-05-06T20:19:33.327Z,8.59
2019-05-06T20:24:37.866Z,8.43
2019-05-06T20:29:45.302Z,8.43
2019-05-06T20:34:51.160Z,8.31
2019-05-06T20:39:57.352Z,8.21
2019-05-06T20:45:08.950Z,8.23
2019-05-06T20:50:22.548Z,8.15
2019-05-06T20:55:35.304Z,8.04
2019-05-06T21:00:39.454Z,8.02
2019-05-06T21:05:45.261Z,8.02
2019-05-06T21:10:52.899Z,8.05
2019-05-06T21:15:58.769Z,7.92
2019-05-06T21:21:04.657Z,7.85
2019-05-06T21:26:13.501Z,7.79
2019-05-06T21:31:18.884Z,7.79
2019-05-06T21:36:24.655Z,7.76
2019-05-06T21:41:32.715Z,7.72
2019-05-06T21:46:39.873Z,7.75
2019-05-06T21:51:50.128Z,7.61
2019-05-06T21:56:57.556Z,7.52
2019-05-06T22:02:06.546Z,7.46
2019-05-06T22:07:12.774Z,7.43
2019-05-06T22:12:18.850Z,7.43
2019-05-06T22:17:24.686Z,7.29
2019-05-06T22:22:42.599Z,7.36
2019-05-06T22:27:48.385Z,7.29
2019-05-06T22:32:54.033Z,7.18
2019-05-06T22:37:59.536Z,7.07
2019-05-06T22:43:05.143Z,6.96
2019-05-06T22:48:12.085Z,6.86
2019-05-06T22:53:17.800Z,6.93
2019-05-06T22:58:23.310Z,6.88
2019-05-06T23:03:31.698Z,6.75
2019-05-06T23:08:37.832Z,6.82
2019-05-06T23:13:44.108Z,6.78
2019-05-06T23:18:49.950Z,6.81
2019-05-06T23:23:55.786Z,6.77
2019-05-06T23:29:02.434Z,6.67
2019-05-06T23:34:08.208Z,6.78
2019-05-06T23:39:58.010Z,6.78
2019-05-06T23:45:40.251Z,6.86
2019-05-06T23:51:22.392Z,6.83
2019-05-06T23:56:43.256Z,6.70
